Portada
METAR-TAF:

METAR-TAF

Aeropuertos :

Fort Dodge, Iowa, Estados Unidos

latitud: 42-33N, longitud: 094-11W, altitud: 354 m

Observación

El informe se hizo hace 18 minutos, a las 10:56 UTC
Viento 3 kt del este-noreste
Temperatura -1°C
Humedad 93%
Presión 1020 hPa
Visibilidad: 16.1 km
Cielo despejado

METAR: KFOD 311056Z AUTO 07003KT 10SM CLR M01/M02 A3011 RMK AO2 SLP231 T10061017 FZRANO

Hora: 06:14 (11:14 UTC)

Pronóstico

El informe se hizo hace 5 horas y 54 minutos, a las 05:20 UTC
Pronóstico válido del 31 a las 06 UTC al 01 a las 06 UTC
Viento 4 kt con dirección variable
Visibilidad: 10 km
Cielo despejado
A partir de las 31 a las 1700 UTC
Viento 6 kt del este-sureste
Visibilidad: 10 km
Nubes dispersas a una altura de 20000 ft

TAF: KFOD 310520Z 3106/0106 VRB04KT P6SM SKC FM311700 11006KT P6SM SCT200

Observaciones y pronósticos meteorológicos de más de 4000 aeropuertos (mensajes METAR y TAF).

Los puntos amarillos y rojos representan las estaciones disponibles.

Ponga el ratón en el punto deseado para ver el nombre de la estación.

Haga clic para ver las observaciones y los pronósticos meteorológicos.

Para cambiar el mapa : haga clic en los botones verdes con una cruz de color negro para hacer un zoom, en el botón verde con un guión para alejar o en las flechas verdes para mapas adyacentes.


METAR-TAF: